sensor_id;sensor_type;location;lat;lon;timestamp;temperature;humidity
60242;SHT30;46103;52.076;113.488;2023-08-01T00:00:10;23.75;69.96
60242;SHT30;46103;52.076;113.488;2023-08-01T00:03:13;23.87;69.64
60242;SHT30;46103;52.076;113.488;2023-08-01T00:06:16;24.05;69.38
60242;SHT30;46103;52.076;113.488;2023-08-01T00:09:20;24.21;69.13
60242;SHT30;46103;52.076;113.488;2023-08-01T00:12:24;24.36;68.91
60242;SHT30;46103;52.076;113.488;2023-08-01T00:15:28;24.40;69.02
60242;SHT30;46103;52.076;113.488;2023-08-01T00:18:31;24.50;68.84
60242;SHT30;46103;52.076;113.488;2023-08-01T00:21:35;24.59;68.84
60242;SHT30;46103;52.076;113.488;2023-08-01T00:24:39;24.66;68.44
60242;SHT30;46103;52.076;113.488;2023-08-01T00:27:42;24.66;68.89
60242;SHT30;46103;52.076;113.488;2023-08-01T00:30:45;24.73;68.65
60242;SHT30;46103;52.076;113.488;2023-08-01T00:33:49;24.98;68.23
60242;SHT30;46103;52.076;113.488;2023-08-01T00:36:53;25.24;67.46
60242;SHT30;46103;52.076;113.488;2023-08-01T00:39:56;25.31;67.26
60242;SHT30;46103;52.076;113.488;2023-08-01T00:43:00;25.53;66.95
60242;SHT30;46103;52.076;113.488;2023-08-01T00:46:04;25.74;66.04
60242;SHT30;46103;52.076;113.488;2023-08-01T00:49:08;25.94;65.70
60242;SHT30;46103;52.076;113.488;2023-08-01T00:52:11;25.97;65.64
60242;SHT30;46103;52.076;113.488;2023-08-01T00:55:15;26.04;65.45
60242;SHT30;46103;52.076;113.488;2023-08-01T00:58:19;26.20;65.29
60242;SHT30;46103;52.076;113.488;2023-08-01T01:01:23;26.22;65.39
60242;SHT30;46103;52.076;113.488;2023-08-01T01:04:27;26.24;65.47
60242;SHT30;46103;52.076;113.488;2023-08-01T01:07:31;26.22;65.61
60242;SHT30;46103;52.076;113.488;2023-08-01T01:10:37;26.14;65.73
60242;SHT30;46103;52.076;113.488;2023-08-01T01:13:41;26.27;65.50
60242;SHT30;46103;52.076;113.488;2023-08-01T01:16:45;26.45;65.20
60242;SHT30;46103;52.076;113.488;2023-08-01T01:19:48;26.71;64.46
60242;SHT30;46103;52.076;113.488;2023-08-01T01:22:53;26.90;63.83
60242;SHT30;46103;52.076;113.488;2023-08-01T01:25:58;26.76;63.91
60242;SHT30;46103;52.076;113.488;2023-08-01T01:29:03;26.72;64.01
60242;SHT30;46103;52.076;113.488;2023-08-01T01:32:07;26.72;64.13
60242;SHT30;46103;52.076;113.488;2023-08-01T01:35:12;26.56;64.98
60242;SHT30;46103;52.076;113.488;2023-08-01T01:38:16;26.71;64.78
60242;SHT30;46103;52.076;113.488;2023-08-01T01:41:20;26.78;64.42
60242;SHT30;46103;52.076;113.488;2023-08-01T01:44:24;27.00;63.93
60242;SHT30;46103;52.076;113.488;2023-08-01T01:47:27;27.06;63.43
60242;SHT30;46103;52.076;113.488;2023-08-01T01:50:30;27.17;63.47
60242;SHT30;46103;52.076;113.488;2023-08-01T01:53:33;27.29;63.05
60242;SHT30;46103;52.076;113.488;2023-08-01T01:56:36;27.44;62.68
60242;SHT30;46103;52.076;113.488;2023-08-01T01:59:41;27.29;62.98
60242;SHT30;46103;52.076;113.488;2023-08-01T02:02:45;27.49;62.90
60242;SHT30;46103;52.076;113.488;2023-08-01T02:05:50;27.75;61.92
60242;SHT30;46103;52.076;113.488;2023-08-01T02:08:54;28.03;61.42
60242;SHT30;46103;52.076;113.488;2023-08-01T02:12:01;28.18;61.19
60242;SHT30;46103;52.076;113.488;2023-08-01T02:15:09;28.45;60.32
60242;SHT30;46103;52.076;113.488;2023-08-01T02:18:13;28.44;60.39
60242;SHT30;46103;52.076;113.488;2023-08-01T02:21:17;28.57;59.78
60242;SHT30;46103;52.076;113.488;2023-08-01T02:24:21;28.72;59.30
60242;SHT30;46103;52.076;113.488;2023-08-01T02:27:25;28.88;58.83
60242;SHT30;46103;52.076;113.488;2023-08-01T02:30:28;28.98;58.18
60242;SHT30;46103;52.076;113.488;2023-08-01T02:33:32;28.89;58.39
60242;SHT30;46103;52.076;113.488;2023-08-01T02:36:37;28.94;58.67
60242;SHT30;46103;52.076;113.488;2023-08-01T02:39:46;29.16;57.78
60242;SHT30;46103;52.076;113.488;2023-08-01T02:42:50;29.40;56.94
60242;SHT30;46103;52.076;113.488;2023-08-01T02:45:55;29.81;55.96
60242;SHT30;46103;52.076;113.488;2023-08-01T02:48:59;29.93;55.38
60242;SHT30;46103;52.076;113.488;2023-08-01T02:52:03;30.06;54.93
60242;SHT30;46103;52.076;113.488;2023-08-01T02:55:09;29.97;54.65
60242;SHT30;46103;52.076;113.488;2023-08-01T02:58:12;29.73;55.18
60242;SHT30;46103;52.076;113.488;2023-08-01T03:01:16;29.64;55.24
60242;SHT30;46103;52.076;113.488;2023-08-01T03:04:19;29.71;55.14
60242;SHT30;46103;52.076;113.488;2023-08-01T03:07:34;29.82;54.53
60242;SHT30;46103;52.076;113.488;2023-08-01T03:10:39;29.74;54.42
60242;SHT30;46103;52.076;113.488;2023-08-01T03:13:44;29.81;53.93
60242;SHT30;46103;52.076;113.488;2023-08-01T03:16:50;29.92;54.06
60242;SHT30;46103;52.076;113.488;2023-08-01T03:19:55;30.05;54.58
60242;SHT30;46103;52.076;113.488;2023-08-01T03:23:00;30.06;54.79
60242;SHT30;46103;52.076;113.488;2023-08-01T03:26:06;30.25;53.87
60242;SHT30;46103;52.076;113.488;2023-08-01T03:29:11;30.33;54.09
60242;SHT30;46103;52.076;113.488;2023-08-01T03:32:15;30.39;54.12
60242;SHT30;46103;52.076;113.488;2023-08-01T03:35:22;30.47;54.38
60242;SHT30;46103;52.076;113.488;2023-08-01T03:38:27;30.61;54.43
60242;SHT30;46103;52.076;113.488;2023-08-01T03:41:33;30.64;54.33
60242;SHT30;46103;52.076;113.488;2023-08-01T03:44:38;30.80;53.73
60242;SHT30;46103;52.076;113.488;2023-08-01T03:47:46;30.68;53.67
60242;SHT30;46103;52.076;113.488;2023-08-01T03:50:50;30.83;52.98
60242;SHT30;46103;52.076;113.488;2023-08-01T03:53:53;31.01;52.04
60242;SHT30;46103;52.076;113.488;2023-08-01T03:57:14;31.11;51.03
60242;SHT30;46103;52.076;113.488;2023-08-01T04:00:18;31.22;50.74
60242;SHT30;46103;52.076;113.488;2023-08-01T04:03:22;31.35;50.10
60242;SHT30;46103;52.076;113.488;2023-08-01T04:06:26;31.50;49.48
60242;SHT30;46103;52.076;113.488;2023-08-01T04:09:30;31.41;50.35
60242;SHT30;46103;52.076;113.488;2023-08-01T04:12:34;31.25;50.24
60242;SHT30;46103;52.076;113.488;2023-08-01T04:15:38;31.31;48.81
60242;SHT30;46103;52.076;113.488;2023-08-01T04:18:42;31.52;48.47
60242;SHT30;46103;52.076;113.488;2023-08-01T04:21:45;31.67;47.88
60242;SHT30;46103;52.076;113.488;2023-08-01T04:24:49;31.67;47.23
60242;SHT30;46103;52.076;113.488;2023-08-01T04:27:54;31.81;46.32
60242;SHT30;46103;52.076;113.488;2023-08-01T04:30:57;32.00;45.72
60242;SHT30;46103;52.076;113.488;2023-08-01T04:34:02;31.94;46.64
60242;SHT30;46103;52.076;113.488;2023-08-01T04:37:06;32.20;45.29
60242;SHT30;46103;52.076;113.488;2023-08-01T04:40:10;32.28;44.34
60242;SHT30;46103;52.076;113.488;2023-08-01T04:43:16;32.35;44.09
60242;SHT30;46103;52.076;113.488;2023-08-01T04:46:22;32.38;45.72
60242;SHT30;46103;52.076;113.488;2023-08-01T04:49:27;32.45;46.13
60242;SHT30;46103;52.076;113.488;2023-08-01T04:52:33;32.70;45.11
60242;SHT30;46103;52.076;113.488;2023-08-01T04:55:39;32.87;43.26
60242;SHT30;46103;52.076;113.488;2023-08-01T04:58:45;33.10;43.74
60242;SHT30;46103;52.076;113.488;2023-08-01T05:01:49;33.13;43.82
60242;SHT30;46103;52.076;113.488;2023-08-01T05:04:53;32.84;43.86
60242;SHT30;46103;52.076;113.488;2023-08-01T05:07:57;32.76;43.70
60242;SHT30;46103;52.076;113.488;2023-08-01T05:11:00;32.65;43.74
60242;SHT30;46103;52.076;113.488;2023-08-01T05:14:04;32.56;43.77
60242;SHT30;46103;52.076;113.488;2023-08-01T05:17:10;32.96;43.48
60242;SHT30;46103;52.076;113.488;2023-08-01T05:20:16;33.33;43.01
60242;SHT30;46103;52.076;113.488;2023-08-01T05:23:22;33.47;42.76
60242;SHT30;46103;52.076;113.488;2023-08-01T05:26:26;33.50;41.41
60242;SHT30;46103;52.076;113.488;2023-08-01T05:29:34;33.51;41.09
60242;SHT30;46103;52.076;113.488;2023-08-01T05:32:41;33.71;40.74
60242;SHT30;46103;52.076;113.488;2023-08-01T05:35:49;34.09;39.86
60242;SHT30;46103;52.076;113.488;2023-08-01T05:38:56;34.16;39.71
60242;SHT30;46103;52.076;113.488;2023-08-01T05:42:02;34.47;39.32
60242;SHT30;46103;52.076;113.488;2023-08-01T05:45:07;34.77;39.02
60242;SHT30;46103;52.076;113.488;2023-08-01T05:48:13;34.81;38.62
60242;SHT30;46103;52.076;113.488;2023-08-01T05:51:23;34.74;39.18
60242;SHT30;46103;52.076;113.488;2023-08-01T05:54:28;34.68;39.30
60242;SHT30;46103;52.076;113.488;2023-08-01T05:57:35;34.77;39.40
60242;SHT30;46103;52.076;113.488;2023-08-01T06:00:42;34.71;39.39
60242;SHT30;46103;52.076;113.488;2023-08-01T06:03:48;34.71;39.41
60242;SHT30;46103;52.076;113.488;2023-08-01T06:06:54;34.57;39.69
60242;SHT30;46103;52.076;113.488;2023-08-01T06:10:01;34.57;39.67
60242;SHT30;46103;52.076;113.488;2023-08-01T06:13:07;34.70;39.44
60242;SHT30;46103;52.076;113.488;2023-08-01T06:16:13;35.03;38.38
60242;SHT30;46103;52.076;113.488;2023-08-01T06:19:20;35.15;38.91
60242;SHT30;46103;52.076;113.488;2023-08-01T06:22:26;35.45;38.43
60242;SHT30;46103;52.076;113.488;2023-08-01T06:25:33;35.26;39.13
60242;SHT30;46103;52.076;113.488;2023-08-01T06:28:38;35.35;38.42
60242;SHT30;46103;52.076;113.488;2023-08-01T06:31:42;35.61;38.05
60242;SHT30;46103;52.076;113.488;2023-08-01T06:34:45;36.14;37.74
60242;SHT30;46103;52.076;113.488;2023-08-01T06:37:49;36.31;37.89
60242;SHT30;46103;52.076;113.488;2023-08-01T06:40:53;36.36;37.67
60242;SHT30;46103;52.076;113.488;2023-08-01T06:43:57;36.25;38.09
60242;SHT30;46103;52.076;113.488;2023-08-01T06:47:01;36.12;38.00
60242;SHT30;46103;52.076;113.488;2023-08-01T06:50:05;35.83;38.16
60242;SHT30;46103;52.076;113.488;2023-08-01T06:53:09;35.60;38.71
60242;SHT30;46103;52.076;113.488;2023-08-01T06:56:13;35.70;38.01
60242;SHT30;46103;52.076;113.488;2023-08-01T06:59:17;35.30;37.93
60242;SHT30;46103;52.076;113.488;2023-08-01T07:02:20;35.70;37.45
60242;SHT30;46103;52.076;113.488;2023-08-01T07:05:24;35.78;37.62
60242;SHT30;46103;52.076;113.488;2023-08-01T07:08:28;35.72;38.01
60242;SHT30;46103;52.076;113.488;2023-08-01T07:11:31;35.72;38.33
60242;SHT30;46103;52.076;113.488;2023-08-01T07:14:36;35.69;37.90
60242;SHT30;46103;52.076;113.488;2023-08-01T07:17:41;35.61;38.23
60242;SHT30;46103;52.076;113.488;2023-08-01T07:20:58;35.81;37.69
60242;SHT30;46103;52.076;113.488;2023-08-01T07:24:04;35.72;38.14
60242;SHT30;46103;52.076;113.488;2023-08-01T07:27:10;35.61;38.51
60242;SHT30;46103;52.076;113.488;2023-08-01T07:30:17;35.38;38.38
60242;SHT30;46103;52.076;113.488;2023-08-01T07:33:23;35.16;38.98
60242;SHT30;46103;52.076;113.488;2023-08-01T07:36:29;35.18;38.61
60242;SHT30;46103;52.076;113.488;2023-08-01T07:39:37;35.06;39.09
60242;SHT30;46103;52.076;113.488;2023-08-01T07:42:43;35.08;39.16
60242;SHT30;46103;52.076;113.488;2023-08-01T07:45:59;35.09;39.18
60242;SHT30;46103;52.076;113.488;2023-08-01T07:49:04;35.18;39.47
60242;SHT30;46103;52.076;113.488;2023-08-01T07:52:10;34.99;39.81
60242;SHT30;46103;52.076;113.488;2023-08-01T07:55:15;34.77;40.57
60242;SHT30;46103;52.076;113.488;2023-08-01T07:58:21;34.56;40.97
60242;SHT30;46103;52.076;113.488;2023-08-01T08:01:27;34.32;41.60
60242;SHT30;46103;52.076;113.488;2023-08-01T08:04:31;33.93;42.99
60242;SHT30;46103;52.076;113.488;2023-08-01T08:07:39;33.81;43.39
60242;SHT30;46103;52.076;113.488;2023-08-01T08:10:43;33.73;43.40
60242;SHT30;46103;52.076;113.488;2023-08-01T08:13:47;33.65;43.65
60242;SHT30;46103;52.076;113.488;2023-08-01T08:16:52;33.43;44.28
60242;SHT30;46103;52.076;113.488;2023-08-01T08:19:57;33.44;44.60
60242;SHT30;46103;52.076;113.488;2023-08-01T08:23:03;33.37;44.99
60242;SHT30;46103;52.076;113.488;2023-08-01T08:26:07;33.17;44.93
60242;SHT30;46103;52.076;113.488;2023-08-01T08:29:12;33.03;46.02
60242;SHT30;46103;52.076;113.488;2023-08-01T08:32:17;33.03;46.26
60242;SHT30;46103;52.076;113.488;2023-08-01T08:35:22;32.87;46.52
60242;SHT30;46103;52.076;113.488;2023-08-01T08:38:27;33.03;45.81
60242;SHT30;46103;52.076;113.488;2023-08-01T08:41:41;33.33;45.66
60242;SHT30;46103;52.076;113.488;2023-08-01T08:44:50;33.33;45.31
60242;SHT30;46103;52.076;113.488;2023-08-01T08:47:59;33.51;44.82
60242;SHT30;46103;52.076;113.488;2023-08-01T08:51:06;33.58;44.40
60242;SHT30;46103;52.076;113.488;2023-08-01T08:54:13;33.88;44.38
60242;SHT30;46103;52.076;113.488;2023-08-01T08:57:20;34.12;43.91
60242;SHT30;46103;52.076;113.488;2023-08-01T09:00:25;34.35;43.59
60242;SHT30;46103;52.076;113.488;2023-08-01T09:03:33;34.88;42.89
60242;SHT30;46103;52.076;113.488;2023-08-01T09:06:44;34.85;42.13
60242;SHT30;46103;52.076;113.488;2023-08-01T09:09:53;34.84;42.74
60242;SHT30;46103;52.076;113.488;2023-08-01T09:12:59;34.43;43.82
60242;SHT30;46103;52.076;113.488;2023-08-01T09:16:06;34.13;43.56
60242;SHT30;46103;52.076;113.488;2023-08-01T09:19:20;34.26;43.59
60242;SHT30;46103;52.076;113.488;2023-08-01T09:22:25;34.75;42.30
60242;SHT30;46103;52.076;113.488;2023-08-01T09:25:31;35.22;42.57
60242;SHT30;46103;52.076;113.488;2023-08-01T09:28:37;35.50;41.76
60242;SHT30;46103;52.076;113.488;2023-08-01T09:31:42;35.35;42.23
60242;SHT30;46103;52.076;113.488;2023-08-01T09:34:58;35.20;42.33
60242;SHT30;46103;52.076;113.488;2023-08-01T09:38:03;34.99;42.75
60242;SHT30;46103;52.076;113.488;2023-08-01T09:41:19;34.85;42.90
60242;SHT30;46103;52.076;113.488;2023-08-01T09:44:27;34.63;42.70
60242;SHT30;46103;52.076;113.488;2023-08-01T09:47:38;34.58;42.99
60242;SHT30;46103;52.076;113.488;2023-08-01T09:50:44;34.53;42.22
60242;SHT30;46103;52.076;113.488;2023-08-01T09:53:55;34.44;43.87
60242;SHT30;46103;52.076;113.488;2023-08-01T09:57:02;34.50;44.17
60242;SHT30;46103;52.076;113.488;2023-08-01T10:00:10;35.78;42.64
60242;SHT30;46103;52.076;113.488;2023-08-01T10:03:16;37.30;40.13
60242;SHT30;46103;52.076;113.488;2023-08-01T10:06:28;38.00;39.20
60242;SHT30;46103;52.076;113.488;2023-08-01T10:09:35;38.83;37.59
60242;SHT30;46103;52.076;113.488;2023-08-01T10:12:44;38.57;38.21
60242;SHT30;46103;52.076;113.488;2023-08-01T10:15:51;38.62;38.08
60242;SHT30;46103;52.076;113.488;2023-08-01T10:18:57;38.92;38.54
60242;SHT30;46103;52.076;113.488;2023-08-01T10:22:06;39.54;37.61
60242;SHT30;46103;52.076;113.488;2023-08-01T10:25:11;39.06;38.24
60242;SHT30;46103;52.076;113.488;2023-08-01T10:28:16;38.86;38.93
60242;SHT30;46103;52.076;113.488;2023-08-01T10:31:22;38.78;39.25
60242;SHT30;46103;52.076;113.488;2023-08-01T10:34:29;37.97;39.82
60242;SHT30;46103;52.076;113.488;2023-08-01T10:37:43;37.54;40.35
60242;SHT30;46103;52.076;113.488;2023-08-01T10:40:49;36.65;41.32
60242;SHT30;46103;52.076;113.488;2023-08-01T10:44:04;36.43;41.70
60242;SHT30;46103;52.076;113.488;2023-08-01T10:47:10;36.05;41.72
60242;SHT30;46103;52.076;113.488;2023-08-01T10:50:14;35.97;42.15
60242;SHT30;46103;52.076;113.488;2023-08-01T10:53:19;36.17;42.48
60242;SHT30;46103;52.076;113.488;2023-08-01T10:56:23;36.68;42.50
60242;SHT30;46103;52.076;113.488;2023-08-01T10:59:27;36.88;42.43
60242;SHT30;46103;52.076;113.488;2023-08-01T11:02:31;36.27;43.78
60242;SHT30;46103;52.076;113.488;2023-08-01T11:05:35;35.26;45.07
60242;SHT30;46103;52.076;113.488;2023-08-01T11:08:39;34.39;47.07
60242;SHT30;46103;52.076;113.488;2023-08-01T11:11:46;33.88;48.18
60242;SHT30;46103;52.076;113.488;2023-08-01T11:14:52;33.53;49.06
60242;SHT30;46103;52.076;113.488;2023-08-01T11:17:56;33.75;48.14
60242;SHT30;46103;52.076;113.488;2023-08-01T11:21:25;33.24;49.57
60242;SHT30;46103;52.076;113.488;2023-08-01T11:24:30;33.17;49.68
60242;SHT30;46103;52.076;113.488;2023-08-01T11:27:34;33.00;50.30
60242;SHT30;46103;52.076;113.488;2023-08-01T11:30:38;32.68;50.91
60242;SHT30;46103;52.076;113.488;2023-08-01T11:33:43;32.35;51.45
60242;SHT30;46103;52.076;113.488;2023-08-01T11:36:59;31.83;52.89
60242;SHT30;46103;52.076;113.488;2023-08-01T11:40:03;31.65;53.66
60242;SHT30;46103;52.076;113.488;2023-08-01T11:43:07;31.35;54.22
60242;SHT30;46103;52.076;113.488;2023-08-01T11:46:12;31.10;54.77
60242;SHT30;46103;52.076;113.488;2023-08-01T11:49:17;30.84;55.50
60242;SHT30;46103;52.076;113.488;2023-08-01T11:52:25;30.59;56.10
60242;SHT30;46103;52.076;113.488;2023-08-01T11:55:35;30.26;56.88
60242;SHT30;46103;52.076;113.488;2023-08-01T11:58:42;30.01;57.21
60242;SHT30;46103;52.076;113.488;2023-08-01T12:01:47;29.78;57.60
60242;SHT30;46103;52.076;113.488;2023-08-01T12:05:05;29.63;58.27
60242;SHT30;46103;52.076;113.488;2023-08-01T12:08:11;29.37;58.86
60242;SHT30;46103;52.076;113.488;2023-08-01T12:11:23;29.25;59.57
60242;SHT30;46103;52.076;113.488;2023-08-01T12:14:26;29.03;59.99
60242;SHT30;46103;52.076;113.488;2023-08-01T12:17:35;28.92;62.01
60242;SHT30;46103;52.076;113.488;2023-08-01T12:20:39;28.82;61.57
60242;SHT30;46103;52.076;113.488;2023-08-01T12:23:43;28.62;61.90
60242;SHT30;46103;52.076;113.488;2023-08-01T12:26:47;28.47;62.55
60242;SHT30;46103;52.076;113.488;2023-08-01T12:29:50;28.39;62.89
60242;SHT30;46103;52.076;113.488;2023-08-01T12:32:54;28.27;63.63
60242;SHT30;46103;52.076;113.488;2023-08-01T12:36:02;28.17;63.78
60242;SHT30;46103;52.076;113.488;2023-08-01T12:39:06;28.06;65.84
60242;SHT30;46103;52.076;113.488;2023-08-01T12:42:14;27.95;64.41
60242;SHT30;46103;52.076;113.488;2023-08-01T12:45:18;27.85;64.79
60242;SHT30;46103;52.076;113.488;2023-08-01T12:48:22;27.72;65.75
60242;SHT30;46103;52.076;113.488;2023-08-01T12:51:40;27.65;65.76
60242;SHT30;46103;52.076;113.488;2023-08-01T12:54:44;27.58;66.04
60242;SHT30;46103;52.076;113.488;2023-08-01T12:57:50;27.54;65.95
60242;SHT30;46103;52.076;113.488;2023-08-01T13:00:55;27.41;67.55
60242;SHT30;46103;52.076;113.488;2023-08-01T13:04:12;27.40;67.78
60242;SHT30;46103;52.076;113.488;2023-08-01T13:08:18;27.35;67.80
60242;SHT30;46103;52.076;113.488;2023-08-01T13:12:37;27.20;67.02
60242;SHT30;46103;52.076;113.488;2023-08-01T13:19:55;26.93;67.26
60242;SHT30;46103;52.076;113.488;2023-08-01T13:23:21;26.86;68.24
60242;SHT30;46103;52.076;113.488;2023-08-01T13:26:40;26.83;68.19
60242;SHT30;46103;52.076;113.488;2023-08-01T13:30:06;26.78;68.38
60242;SHT30;46103;52.076;113.488;2023-08-01T13:34:00;26.62;68.44
60242;SHT30;46103;52.076;113.488;2023-08-01T13:37:06;26.49;68.59
60242;SHT30;46103;52.076;113.488;2023-08-01T13:40:28;26.37;68.78
60242;SHT30;46103;52.076;113.488;2023-08-01T13:43:52;26.32;68.88
60242;SHT30;46103;52.076;113.488;2023-08-01T13:47:53;26.17;68.96
60242;SHT30;46103;52.076;113.488;2023-08-01T13:50:58;26.08;69.09
60242;SHT30;46103;52.076;113.488;2023-08-01T13:54:17;26.01;69.70
60242;SHT30;46103;52.076;113.488;2023-08-01T13:57:21;25.93;69.67
60242;SHT30;46103;52.076;113.488;2023-08-01T14:00:27;25.84;70.03
60242;SHT30;46103;52.076;113.488;2023-08-01T14:03:34;25.77;69.99
60242;SHT30;46103;52.076;113.488;2023-08-01T14:06:42;25.72;70.21
60242;SHT30;46103;52.076;113.488;2023-08-01T14:10:20;25.63;70.10
60242;SHT30;46103;52.076;113.488;2023-08-01T14:13:40;25.47;70.52
60242;SHT30;46103;52.076;113.488;2023-08-01T14:16:44;25.45;70.47
60242;SHT30;46103;52.076;113.488;2023-08-01T14:19:49;25.32;70.60
60242;SHT30;46103;52.076;113.488;2023-08-01T14:23:09;25.28;69.67
60242;SHT30;46103;52.076;113.488;2023-08-01T14:26:13;25.17;70.18
60242;SHT30;46103;52.076;113.488;2023-08-01T14:29:42;24.99;71.61
60242;SHT30;46103;52.076;113.488;2023-08-01T14:33:03;24.91;71.65
60242;SHT30;46103;52.076;113.488;2023-08-01T14:36:09;24.84;71.98
60242;SHT30;46103;52.076;113.488;2023-08-01T14:39:15;24.74;72.30
60242;SHT30;46103;52.076;113.488;2023-08-01T14:42:24;24.64;72.65
60242;SHT30;46103;52.076;113.488;2023-08-01T14:45:28;24.57;72.69
60242;SHT30;46103;52.076;113.488;2023-08-01T14:48:33;24.52;72.92
60242;SHT30;46103;52.076;113.488;2023-08-01T14:51:41;24.44;72.63
60242;SHT30;46103;52.076;113.488;2023-08-01T14:54:50;24.46;72.42
60242;SHT30;46103;52.076;113.488;2023-08-01T14:57:57;24.43;72.78
60242;SHT30;46103;52.076;113.488;2023-08-01T15:01:03;24.40;72.98
60242;SHT30;46103;52.076;113.488;2023-08-01T15:04:11;24.37;73.18
60242;SHT30;46103;52.076;113.488;2023-08-01T15:07:17;24.40;73.19
60242;SHT30;46103;52.076;113.488;2023-08-01T15:10:25;24.46;73.18
60242;SHT30;46103;52.076;113.488;2023-08-01T15:13:31;24.42;73.29
60242;SHT30;46103;52.076;113.488;2023-08-01T15:16:37;24.35;73.36
60242;SHT30;46103;52.076;113.488;2023-08-01T15:19:45;24.30;73.48
60242;SHT30;46103;52.076;113.488;2023-08-01T15:22:51;24.29;73.47
60242;SHT30;46103;52.076;113.488;2023-08-01T15:25:58;24.29;73.36
60242;SHT30;46103;52.076;113.488;2023-08-01T15:29:04;24.32;73.21
60242;SHT30;46103;52.076;113.488;2023-08-01T15:32:10;24.28;73.18
60242;SHT30;46103;52.076;113.488;2023-08-01T15:35:14;24.23;73.33
60242;SHT30;46103;52.076;113.488;2023-08-01T15:38:18;24.18;73.18
60242;SHT30;46103;52.076;113.488;2023-08-01T15:41:22;24.15;73.41
60242;SHT30;46103;52.076;113.488;2023-08-01T15:44:26;24.14;73.26
60242;SHT30;46103;52.076;113.488;2023-08-01T15:47:33;24.16;73.71
60242;SHT30;46103;52.076;113.488;2023-08-01T15:50:37;24.22;73.46
60242;SHT30;46103;52.076;113.488;2023-08-01T15:53:42;24.25;73.03
60242;SHT30;46103;52.076;113.488;2023-08-01T15:56:45;24.29;73.03
60242;SHT30;46103;52.076;113.488;2023-08-01T15:59:50;24.36;72.99
60242;SHT30;46103;52.076;113.488;2023-08-01T16:02:53;24.42;72.58
60242;SHT30;46103;52.076;113.488;2023-08-01T16:05:57;24.42;72.47
60242;SHT30;46103;52.076;113.488;2023-08-01T16:09:01;24.50;72.46
60242;SHT30;46103;52.076;113.488;2023-08-01T16:12:06;24.50;72.31
60242;SHT30;46103;52.076;113.488;2023-08-01T16:15:09;24.57;71.65
60242;SHT30;46103;52.076;113.488;2023-08-01T16:18:13;24.50;71.73
60242;SHT30;46103;52.076;113.488;2023-08-01T16:21:16;24.43;71.82
60242;SHT30;46103;52.076;113.488;2023-08-01T16:24:20;24.37;72.04
60242;SHT30;46103;52.076;113.488;2023-08-01T16:27:24;24.33;72.20
60242;SHT30;46103;52.076;113.488;2023-08-01T16:30:28;24.22;71.82
60242;SHT30;46103;52.076;113.488;2023-08-01T16:33:33;24.05;72.10
60242;SHT30;46103;52.076;113.488;2023-08-01T16:36:37;23.87;72.74
60242;SHT30;46103;52.076;113.488;2023-08-01T16:39:42;23.81;73.35
60242;SHT30;46103;52.076;113.488;2023-08-01T16:42:46;23.66;73.46
60242;SHT30;46103;52.076;113.488;2023-08-01T16:45:50;23.51;73.50
60242;SHT30;46103;52.076;113.488;2023-08-01T16:48:53;23.39;73.71
60242;SHT30;46103;52.076;113.488;2023-08-01T16:51:59;23.24;73.79
60242;SHT30;46103;52.076;113.488;2023-08-01T16:55:04;23.15;74.55
60242;SHT30;46103;52.076;113.488;2023-08-01T16:58:07;23.08;74.99
60242;SHT30;46103;52.076;113.488;2023-08-01T17:01:10;23.02;75.05
60242;SHT30;46103;52.076;113.488;2023-08-01T17:04:14;22.99;75.16
60242;SHT30;46103;52.076;113.488;2023-08-01T17:07:18;22.91;74.96
60242;SHT30;46103;52.076;113.488;2023-08-01T17:10:21;22.84;75.19
60242;SHT30;46103;52.076;113.488;2023-08-01T17:13:25;22.74;75.55
60242;SHT30;46103;52.076;113.488;2023-08-01T17:16:31;22.67;75.82
60242;SHT30;46103;52.076;113.488;2023-08-01T17:19:36;22.63;75.99
60242;SHT30;46103;52.076;113.488;2023-08-01T17:22:39;22.55;76.05
60242;SHT30;46103;52.076;113.488;2023-08-01T17:25:43;22.50;76.28
60242;SHT30;46103;52.076;113.488;2023-08-01T17:28:47;22.47;76.29
60242;SHT30;46103;52.076;113.488;2023-08-01T17:31:51;22.34;76.77
60242;SHT30;46103;52.076;113.488;2023-08-01T17:34:56;22.40;76.92
60242;SHT30;46103;52.076;113.488;2023-08-01T17:38:00;22.39;76.41
60242;SHT30;46103;52.076;113.488;2023-08-01T17:41:19;22.29;76.86
60242;SHT30;46103;52.076;113.488;2023-08-01T17:44:24;22.23;76.83
60242;SHT30;46103;52.076;113.488;2023-08-01T17:47:36;22.19;77.36
60242;SHT30;46103;52.076;113.488;2023-08-01T17:50:44;22.19;77.12
60242;SHT30;46103;52.076;113.488;2023-08-01T17:53:47;22.13;76.89
60242;SHT30;46103;52.076;113.488;2023-08-01T17:56:51;22.09;76.92
60242;SHT30;46103;52.076;113.488;2023-08-01T17:59:57;22.10;76.73
60242;SHT30;46103;52.076;113.488;2023-08-01T18:03:02;22.08;76.80
60242;SHT30;46103;52.076;113.488;2023-08-01T18:06:07;22.08;77.10
60242;SHT30;46103;52.076;113.488;2023-08-01T18:09:11;22.10;76.62
60242;SHT30;46103;52.076;113.488;2023-08-01T18:12:15;22.03;76.73
60242;SHT30;46103;52.076;113.488;2023-08-01T18:15:19;22.00;77.28
60242;SHT30;46103;52.076;113.488;2023-08-01T18:18:23;22.00;77.25
60242;SHT30;46103;52.076;113.488;2023-08-01T18:21:27;21.96;77.40
60242;SHT30;46103;52.076;113.488;2023-08-01T18:24:31;21.90;78.00
60242;SHT30;46103;52.076;113.488;2023-08-01T18:27:35;21.83;77.85
60242;SHT30;46103;52.076;113.488;2023-08-01T18:30:39;21.78;78.10
60242;SHT30;46103;52.076;113.488;2023-08-01T18:33:47;21.74;77.92
60242;SHT30;46103;52.076;113.488;2023-08-01T18:36:50;21.68;78.12
60242;SHT30;46103;52.076;113.488;2023-08-01T18:39:54;21.65;77.96
60242;SHT30;46103;52.076;113.488;2023-08-01T18:42:58;21.58;77.72
60242;SHT30;46103;52.076;113.488;2023-08-01T18:46:03;21.51;77.88
60242;SHT30;46103;52.076;113.488;2023-08-01T18:49:07;21.41;78.26
60242;SHT30;46103;52.076;113.488;2023-08-01T18:52:11;21.33;78.57
60242;SHT30;46103;52.076;113.488;2023-08-01T18:55:18;21.24;78.19
60242;SHT30;46103;52.076;113.488;2023-08-01T18:58:22;21.17;78.28
60242;SHT30;46103;52.076;113.488;2023-08-01T19:01:25;21.16;78.41
60242;SHT30;46103;52.076;113.488;2023-08-01T19:04:29;21.14;78.38
60242;SHT30;46103;52.076;113.488;2023-08-01T19:07:33;21.13;78.45